Time;durP1;ratioP1;P1;durP2;ratioP2;P2;SDS_P1;SDS_P2;PMS_P1;PMS_P2;Temp;Humidity;BMP_temperature;BMP_pressure;BME280_temperature;BME280_humidity;BME280_pressure;Samples;Min_cycle;Max_cycle;Signal;HPM_P1;HPM_P2
2021/11/18 00:01:10;;;;;;;8.30;6.73;;;;;;;6.65;100.00;99287.41;5134287;27;20317;-62
2021/11/18 00:03:38;;;;;;;10.60;7.47;;;;;;;6.66;100.00;99289.13;5134281;27;20209;-61
2021/11/18 00:06:05;;;;;;;8.73;7.37;;;;;;;6.62;100.00;99277.03;5134487;27;20213;-62
2021/11/18 00:08:32;;;;;;;8.93;7.17;;;;;;;6.65;100.00;99276.06;5122824;27;20213;-61
2021/11/18 00:11:02;;;;;;;9.63;7.40;;;;;;;6.66;100.00;99281.25;5134354;27;20213;-62
2021/11/18 00:13:31;;;;;;;9.93;8.37;;;;;;;6.65;100.00;99276.91;5134106;27;20219;-62
2021/11/18 00:15:59;;;;;;;9.00;7.90;;;;;;;6.66;100.00;99278.63;5134208;27;20215;-61
2021/11/18 00:18:27;;;;;;;9.03;7.50;;;;;;;6.67;100.00;99296.13;5134043;27;20673;-61
2021/11/18 00:20:56;;;;;;;8.97;7.80;;;;;;;6.68;100.00;99279.44;5132184;27;20740;-62
2021/11/18 00:23:25;;;;;;;8.77;7.70;;;;;;;6.68;100.00;99276.81;5134097;27;20223;-61
2021/11/18 00:25:52;;;;;;;9.50;7.70;;;;;;;6.69;100.00;99289.03;5134215;27;20220;-61
2021/11/18 00:28:19;;;;;;;9.97;8.23;;;;;;;6.65;100.00;99282.16;5133957;27;20591;-62
2021/11/18 00:30:46;;;;;;;9.33;7.83;;;;;;;6.65;100.00;99287.41;5134168;27;20219;-62
2021/11/18 00:33:13;;;;;;;9.53;7.53;;;;;;;6.63;100.00;99277.88;5134042;27;20217;-61
2021/11/18 00:35:40;;;;;;;10.07;7.77;;;;;;;6.60;100.00;99281.47;5134145;27;20264;-62
2021/11/18 00:38:08;;;;;;;9.87;8.07;;;;;;;6.57;100.00;99276.34;5134053;27;20217;-62
2021/11/18 00:40:36;;;;;;;8.87;7.80;;;;;;;6.56;100.00;99277.25;5133831;27;20235;-62
2021/11/18 00:43:03;;;;;;;9.57;8.57;;;;;;;6.58;100.00;99283.28;5133770;28;20212;-61
2021/11/18 00:45:32;;;;;;;11.60;9.10;;;;;;;6.60;100.00;99281.47;5133724;28;20208;-61
2021/11/18 00:47:58;;;;;;;10.03;8.37;;;;;;;6.57;100.00;99283.34;5132237;28;20212;-62
2021/11/18 00:50:27;;;;;;;10.17;8.53;;;;;;;6.56;100.00;99282.50;5133869;28;20208;-62
2021/11/18 00:52:54;;;;;;;11.33;8.77;;;;;;;6.57;100.00;99286.84;5133635;28;20209;-62
2021/11/18 00:55:22;;;;;;;11.53;8.97;;;;;;;6.57;100.00;99289.47;5133526;28;20654;-61
2021/11/18 00:57:48;;;;;;;11.10;9.13;;;;;;;6.55;100.00;99279.91;5133865;28;20213;-61
2021/11/18 01:00:17;;;;;;;10.43;8.23;;;;;;;6.51;100.00;99278.31;5133794;28;20591;-62
2021/11/18 01:02:46;;;;;;;10.40;8.60;;;;;;;6.53;100.00;99277.34;5135280;27;20576;-61
2021/11/18 01:05:13;;;;;;;10.97;8.87;;;;;;;6.51;100.00;99279.16;5135237;27;20212;-61
2021/11/18 01:07:40;;;;;;;10.63;8.60;;;;;;;6.50;100.00;99287.97;5138129;27;20246;-61
2021/11/18 01:10:09;;;;;;;10.97;8.47;;;;;;;6.51;100.00;99284.44;5137902;27;20220;-61
2021/11/18 01:12:35;;;;;;;11.97;9.03;;;;;;;6.48;100.00;99283.69;5136445;27;20219;-61
2021/11/18 01:15:02;;;;;;;10.90;8.30;;;;;;;6.49;100.00;99288.88;5134727;27;20220;-61
2021/11/18 01:17:28;;;;;;;12.17;9.53;;;;;;;6.52;100.00;99290.50;5137797;27;20216;-61
2021/11/18 01:19:56;;;;;;;11.20;8.87;;;;;;;6.50;100.00;99293.22;5137577;27;20207;-61
2021/11/18 01:22:23;;;;;;;11.50;9.30;;;;;;;6.49;100.00;99275.75;5137403;27;20222;-61
2021/11/18 01:24:49;;;;;;;11.53;9.47;;;;;;;6.45;100.00;99276.75;5137540;27;20221;-61
2021/11/18 01:27:16;;;;;;;11.37;9.57;;;;;;;6.48;100.00;99288.94;5137490;27;21298;-61
2021/11/18 01:29:43;;;;;;;11.33;8.43;;;;;;;6.46;100.00;99288.09;5137519;27;20232;-61
2021/11/18 01:32:09;;;;;;;12.93;9.93;;;;;;;6.44;100.00;99289.94;5137290;27;20239;-60
2021/11/18 01:34:36;;;;;;;12.73;9.20;;;;;;;6.44;100.00;99303.94;5137400;27;20224;-61
2021/11/18 01:37:04;;;;;;;13.60;10.97;;;;;;;6.43;100.00;99294.34;5137478;27;20240;-60
2021/11/18 01:39:31;;;;;;;12.80;9.70;;;;;;;6.45;100.00;99300.41;5135607;27;20212;-61
2021/11/18 01:41:58;;;;;;;14.23;10.80;;;;;;;6.41;100.00;99303.19;5136911;27;20239;-61
2021/11/18 01:44:29;;;;;;;11.47;9.40;;;;;;;6.41;100.00;99303.19;5137230;27;20239;-61
2021/11/18 01:46:57;;;;;;;13.67;10.47;;;;;;;6.43;100.00;99312.72;5125930;27;20677;-61
2021/11/18 01:49:24;;;;;;;11.80;9.97;;;;;;;6.45;100.00;99300.41;5137207;27;20575;-61
2021/11/18 01:51:55;;;;;;;11.83;10.07;;;;;;;6.46;100.00;99311.75;5137098;27;20226;-61
2021/11/18 01:54:27;;;;;;;13.40;10.73;;;;;;;6.46;100.00;99309.97;5136782;27;20694;-60
2021/11/18 01:56:55;;;;;;;14.33;11.37;;;;;;;6.46;100.00;99304.72;5136789;27;20220;-61
2021/11/18 01:59:24;;;;;;;14.23;11.00;;;;;;;6.45;100.00;99305.66;5127548;27;20224;-61
2021/11/18 02:01:53;;;;;;;14.47;10.77;;;;;;;6.44;100.00;99301.31;5124219;27;20232;-61
2021/11/18 02:04:23;;;;;;;13.17;10.17;;;;;;;6.44;100.00;99303.06;5121836;27;20252;-61
2021/11/18 02:06:53;;;;;;;16.77;11.37;;;;;;;6.41;100.00;99304.03;5121824;27;20217;-61
2021/11/18 02:09:22;;;;;;;13.43;10.47;;;;;;;6.44;100.00;99295.19;5121352;27;20669;-61
2021/11/18 02:11:52;;;;;;;13.20;10.90;;;;;;;6.44;100.00;99297.81;5125069;27;20218;-60
2021/11/18 02:14:21;;;;;;;14.03;10.87;;;;;;;6.49;100.00;99302.03;5135561;27;20218;-61
2021/11/18 02:16:49;;;;;;;13.83;10.57;;;;;;;6.49;100.00;99304.63;5136731;27;20213;-61
2021/11/18 02:19:17;;;;;;;12.97;10.50;;;;;;;6.50;100.00;99297.59;5136610;27;20207;-61
2021/11/18 02:21:48;;;;;;;13.57;10.57;;;;;;;6.49;100.00;99294.13;5136497;27;20232;-61
2021/11/18 02:24:19;;;;;;;12.97;10.20;;;;;;;6.52;100.00;99309.78;5125169;27;20215;-61
2021/11/18 02:26:45;;;;;;;14.53;9.90;;;;;;;6.52;100.00;99311.53;5136525;27;20265;-61
2021/11/18 02:29:12;;;;;;;13.23;10.47;;;;;;;6.50;100.00;99308.97;5136548;27;20240;-61
2021/11/18 02:31:42;;;;;;;11.00;9.23;;;;;;;6.52;100.00;99319.41;5134630;27;20213;-61
2021/11/18 02:34:12;;;;;;;12.30;10.00;;;;;;;6.52;100.00;99327.28;5136277;27;20207;-61
2021/11/18 02:36:39;;;;;;;11.97;9.57;;;;;;;6.51;100.00;99333.47;5136101;27;20209;-61
2021/11/18 02:39:08;;;;;;;12.03;9.60;;;;;;;6.52;100.00;99341.28;5135919;27;20226;-61
2021/11/18 02:41:36;;;;;;;12.23;10.27;;;;;;;6.52;100.00;99343.91;5135945;27;20241;-61
2021/11/18 02:44:03;;;;;;;12.03;10.10;;;;;;;6.40;100.00;99349.59;5136011;27;20213;-61
2021/11/18 02:46:29;;;;;;;13.87;10.90;;;;;;;6.36;100.00;99347.94;5135927;27;20213;-61
2021/11/18 02:48:56;;;;;;;14.27;11.10;;;;;;;6.34;100.00;99347.16;5135679;27;20686;-61
2021/11/18 02:51:23;;;;;;;13.07;10.50;;;;;;;6.37;100.00;99341.81;5135788;27;20222;-61
2021/11/18 02:53:50;;;;;;;13.40;10.97;;;;;;;6.42;100.00;99345.13;5135864;27;20206;-61
2021/11/18 02:56:19;;;;;;;13.67;10.90;;;;;;;6.45;100.00;99352.03;5134531;27;20212;-61
2021/11/18 02:58:46;;;;;;;12.97;10.63;;;;;;;6.43;100.00;99341.63;5125480;27;20226;-61
2021/11/18 03:01:17;;;;;;;15.27;11.43;;;;;;;6.43;100.00;99343.38;5135672;27;20236;-61
2021/11/18 03:03:44;;;;;;;15.60;12.00;;;;;;;6.39;100.00;99347.00;5135767;27;20240;-61
2021/11/18 03:06:12;;;;;;;14.33;10.43;;;;;;;6.40;100.00;99344.31;5135737;27;20216;-61
2021/11/18 03:08:39;;;;;;;14.17;11.03;;;;;;;6.41;100.00;99356.53;5135740;27;20220;-61
2021/11/18 03:11:07;;;;;;;14.17;10.07;;;;;;;6.43;100.00;99354.75;5133028;27;20224;-60
2021/11/18 03:13:36;;;;;;;12.07;10.27;;;;;;;6.43;100.00;99354.75;5135707;27;20571;-60
2021/11/18 03:16:03;;;;;;;11.47;9.80;;;;;;;6.47;100.00;99353.72;5135259;27;20227;-60
2021/11/18 03:18:30;;;;;;;12.27;10.07;;;;;;;6.46;100.00;99348.50;5135221;27;20210;-60
2021/11/18 03:20:58;;;;;;;12.17;10.20;;;;;;;6.47;100.00;99340.59;5135270;27;20244;-60
2021/11/18 03:23:25;;;;;;;11.83;9.90;;;;;;;6.47;100.00;99340.59;5133536;27;20217;-60
2021/11/18 03:25:52;;;;;;;13.73;11.33;;;;;;;6.46;100.00;99338.00;5135180;27;20587;-60
2021/11/18 03:28:21;;;;;;;13.30;11.07;;;;;;;6.47;100.00;99345.84;5135262;27;20239;-60
2021/11/18 03:30:52;;;;;;;15.13;11.90;;;;;;;6.45;100.00;99339.78;5133029;27;20610;-60
2021/11/18 03:33:23;;;;;;;15.07;10.90;;;;;;;6.48;100.00;99344.91;5135199;27;20680;-60
2021/11/18 03:35:50;;;;;;;13.97;11.13;;;;;;;6.46;100.00;99352.00;5135122;27;20227;-61
2021/11/18 03:38:17;;;;;;;16.90;12.77;;;;;;;6.44;100.00;99351.22;5134858;27;20223;-60
2021/11/18 03:40:49;;;;;;;16.13;12.10;;;;;;;6.48;100.00;99347.53;5134680;27;20217;-61
2021/11/18 03:43:17;;;;;;;16.07;12.77;;;;;;;6.48;100.00;99349.34;5134715;27;20217;-60
2021/11/18 03:45:43;;;;;;;17.00;12.20;;;;;;;6.48;100.00;99339.66;5134907;27;20235;-60
2021/11/18 03:48:16;;;;;;;17.07;12.40;;;;;;;6.47;100.00;99339.75;5134253;27;20224;-60
2021/11/18 03:50:43;;;;;;;15.47;12.13;;;;;;;6.46;100.00;99338.88;5134469;27;20229;-58
2021/11/18 03:53:11;;;;;;;16.77;12.63;;;;;;;6.49;100.00;99348.41;5134474;27;20219;-58
2021/11/18 03:55:38;;;;;;;17.07;12.00;;;;;;;6.48;100.00;99350.16;5134521;27;20213;-58
2021/11/18 03:58:06;;;;;;;14.37;10.83;;;;;;;6.48;100.00;99352.78;5134745;27;20613;-59
2021/11/18 04:00:34;;;;;;;15.83;12.07;;;;;;;6.47;100.00;99361.59;5134665;27;20213;-59
2021/11/18 04:03:03;;;;;;;16.30;11.87;;;;;;;6.46;100.00;99373.00;5134350;27;20238;-59
2021/11/18 04:05:32;;;;;;;15.60;12.37;;;;;;;6.49;100.00;99370.31;5134495;27;20583;-59
2021/11/18 04:07:58;;;;;;;15.10;11.90;;;;;;;6.49;100.00;99367.69;5134317;27;20234;-59
2021/11/18 04:10:27;;;;;;;20.13;12.90;;;;;;;6.53;100.00;99377.16;5134543;27;20669;-59
2021/11/18 04:12:54;;;;;;;15.73;11.93;;;;;;;6.50;100.00;99377.25;5130188;27;20217;-59
2021/11/18 04:15:23;;;;;;;16.10;11.93;;;;;;;6.51;100.00;99384.22;5129449;27;20214;-59
2021/11/18 04:17:50;;;;;;;16.87;11.67;;;;;;;6.50;100.00;99379.88;5133960;27;20675;-59
2021/11/18 04:20:18;;;;;;;15.47;11.83;;;;;;;6.53;100.00;99381.56;5134198;27;20213;-59
2021/11/18 04:22:47;;;;;;;15.13;11.37;;;;;;;6.56;100.00;99371.81;5133967;27;20244;-59
2021/11/18 04:25:18;;;;;;;17.03;11.73;;;;;;;6.55;100.00;99372.72;5134200;27;20220;-59
2021/11/18 04:27:45;;;;;;;16.77;12.40;;;;;;;6.57;100.00;99373.50;5133761;27;20212;-59
2021/11/18 04:30:16;;;;;;;16.20;11.23;;;;;;;6.55;100.00;99385.84;5134224;27;20250;-59
2021/11/18 04:32:44;;;;;;;17.37;12.00;;;;;;;6.55;100.00;99391.09;5133942;27;20370;-60
2021/11/18 04:35:12;;;;;;;17.23;11.93;;;;;;;6.56;100.00;99386.69;5133730;27;20700;-60
2021/11/18 04:37:39;;;;;;;15.57;11.43;;;;;;;6.56;100.00;99387.56;5133456;27;20217;-60
2021/11/18 04:40:10;;;;;;;17.07;12.47;;;;;;;6.56;100.00;99382.31;5133749;27;20215;-59
2021/11/18 04:42:39;;;;;;;15.83;12.53;;;;;;;6.57;100.00;99409.41;5133115;27;20237;-59
2021/11/18 04:45:08;;;;;;;14.60;11.63;;;;;;;6.60;100.00;99415.44;5133608;27;20244;-59
2021/11/18 04:47:34;;;;;;;14.33;11.20;;;;;;;6.61;100.00;99411.03;5133606;28;20223;-59
2021/11/18 04:50:01;;;;;;;15.60;10.70;;;;;;;6.60;100.00;99409.34;5133537;28;20681;-59
2021/11/18 04:52:28;;;;;;;17.17;12.47;;;;;;;6.59;100.00;99411.09;5133875;28;20216;-59
2021/11/18 04:54:54;;;;;;;16.33;12.10;;;;;;;6.57;100.00;99399.78;5133692;28;20216;-60
2021/11/18 04:57:28;;;;;;;14.87;11.20;;;;;;;6.61;100.00;99406.66;5133853;28;20224;-59
2021/11/18 04:59:54;;;;;;;15.97;11.93;;;;;;;6.61;100.00;99404.03;5133797;28;20292;-59
2021/11/18 05:02:21;;;;;;;14.37;11.77;;;;;;;6.61;100.00;99411.91;5133433;28;20233;-59
2021/11/18 05:04:49;;;;;;;15.07;11.80;;;;;;;6.62;100.00;99408.38;5133663;28;20219;-59
2021/11/18 05:07:17;;;;;;;15.33;11.53;;;;;;;6.63;100.00;99410.09;5131820;28;20306;-59
2021/11/18 05:09:43;;;;;;;14.70;10.90;;;;;;;6.66;100.00;99409.97;5133825;28;20641;-60
2021/11/18 05:12:10;;;;;;;15.77;12.20;;;;;;;6.69;100.00;99411.63;5133700;28;20584;-60
2021/11/18 05:14:38;;;;;;;15.43;11.50;;;;;;;6.73;100.00;99421.16;5133338;28;20212;-59
2021/11/18 05:17:05;;;;;;;15.93;11.27;;;;;;;6.70;100.00;99421.22;5133676;28;20217;-59
2021/11/18 05:19:32;;;;;;;15.40;11.43;;;;;;;6.69;100.00;99416.88;5133418;28;20703;-60
2021/11/18 05:21:58;;;;;;;15.83;12.03;;;;;;;6.67;100.00;99416.97;5133567;28;20364;-59
2021/11/18 05:24:25;;;;;;;16.70;11.80;;;;;;;6.70;100.00;99422.09;5133577;28;20228;-60
2021/11/18 05:26:51;;;;;;;15.57;11.23;;;;;;;6.73;100.00;99419.34;5133579;28;20212;-60
2021/11/18 05:29:18;;;;;;;16.17;11.40;;;;;;;6.76;100.00;99421.91;5127587;28;20244;-60
2021/11/18 05:31:46;;;;;;;15.17;12.03;;;;;;;6.77;100.00;99420.97;5133344;28;20672;-59
2021/11/18 05:34:12;;;;;;;14.97;11.43;;;;;;;6.78;100.00;99425.31;5131720;28;20216;-60
2021/11/18 05:36:39;;;;;;;14.97;11.37;;;;;;;6.79;100.00;99437.53;5133566;28;20227;-60
2021/11/18 05:39:06;;;;;;;15.63;11.60;;;;;;;6.79;100.00;99427.03;5133385;28;20220;-60
2021/11/18 05:41:33;;;;;;;15.13;11.37;;;;;;;6.77;100.00;99426.25;5133207;28;20218;-60
2021/11/18 05:44:02;;;;;;;15.57;12.30;;;;;;;6.77;100.00;99428.88;5133012;28;20217;-60
2021/11/18 05:46:31;;;;;;;18.50;13.33;;;;;;;6.75;100.00;99433.31;5130958;28;20217;-60
2021/11/18 05:49:00;;;;;;;14.50;11.40;;;;;;;6.78;100.00;99430.56;5133552;27;20221;-60
2021/11/18 05:51:27;;;;;;;15.23;11.60;;;;;;;6.80;100.00;99428.78;5137070;27;20215;-60
2021/11/18 05:53:54;;;;;;;14.80;11.50;;;;;;;6.78;100.00;99435.84;5136754;27;20691;-59
2021/11/18 05:56:23;;;;;;;14.13;10.93;;;;;;;6.79;100.00;99437.53;5137040;27;20212;-59
2021/11/18 05:58:52;;;;;;;14.97;11.27;;;;;;;6.79;100.00;99442.81;5134976;27;20213;-60
2021/11/18 06:01:20;;;;;;;13.63;10.73;;;;;;;6.81;100.00;99438.38;5137019;27;20221;-60
2021/11/18 06:03:47;;;;;;;14.43;10.80;;;;;;;6.81;100.00;99435.75;5136622;27;20240;-59
2021/11/18 06:06:15;;;;;;;16.70;11.67;;;;;;;6.77;100.00;99434.13;5136816;27;20209;-59
2021/11/18 06:08:41;;;;;;;12.67;10.67;;;;;;;6.81;100.00;99435.75;5137062;27;20213;-59
2021/11/18 06:11:10;;;;;;;15.97;11.67;;;;;;;6.84;100.00;99435.63;5136574;27;20236;-59
2021/11/18 06:13:36;;;;;;;15.00;10.53;;;;;;;6.81;100.00;99433.13;5136688;27;20240;-59
2021/11/18 06:16:04;;;;;;;12.87;10.43;;;;;;;6.82;100.00;99442.72;5136346;27;20674;-59
2021/11/18 06:18:31;;;;;;;13.77;11.20;;;;;;;6.82;100.00;99447.97;5136853;27;20219;-59
2021/11/18 06:20:58;;;;;;;12.63;10.53;;;;;;;6.81;100.00;99448.88;5136578;27;20580;-59
2021/11/18 06:23:26;;;;;;;14.13;10.97;;;;;;;6.81;100.00;99446.25;5136507;27;20243;-59
2021/11/18 06:25:52;;;;;;;14.80;11.03;;;;;;;6.83;100.00;99449.69;5134427;27;20217;-59
2021/11/18 06:28:20;;;;;;;13.70;10.53;;;;;;;6.81;100.00;99443.63;5136146;27;21318;-60
2021/11/18 06:30:49;;;;;;;14.67;10.53;;;;;;;6.82;100.00;99452.34;5136388;27;20584;-60
2021/11/18 06:33:17;;;;;;;13.97;10.70;;;;;;;6.84;100.00;99455.81;5136276;27;20577;-59
2021/11/18 06:35:44;;;;;;;14.80;11.60;;;;;;;6.84;100.00;99456.66;5135978;27;20678;-59
2021/11/18 06:38:10;;;;;;;13.40;10.73;;;;;;;6.86;100.00;99459.25;5136391;27;20213;-59
2021/11/18 06:40:38;;;;;;;13.27;10.57;;;;;;;6.85;100.00;99468.88;5136230;27;20238;-59
2021/11/18 06:43:05;;;;;;;13.07;10.33;;;;;;;6.82;100.00;99474.25;5131997;27;20244;-59
2021/11/18 06:45:36;;;;;;;13.63;9.90;;;;;;;6.78;100.00;99472.63;5135890;27;20603;-59
2021/11/18 06:48:02;;;;;;;12.70;9.93;;;;;;;6.79;100.00;99478.75;5136033;27;20220;-59
2021/11/18 06:50:29;;;;;;;12.53;9.90;;;;;;;6.81;100.00;99482.16;5133911;27;20238;-59
2021/11/18 06:52:56;;;;;;;13.70;10.67;;;;;;;6.82;100.00;99479.50;5135927;27;20221;-60
2021/11/18 06:55:23;;;;;;;12.93;10.33;;;;;;;6.84;100.00;99477.66;5135887;27;20222;-59
2021/11/18 06:57:51;;;;;;;14.73;10.90;;;;;;;6.87;100.00;99477.59;5135980;27;20235;-59
2021/11/18 07:00:19;;;;;;;12.80;10.23;;;;;;;6.87;100.00;99487.22;5135247;27;20292;-59
2021/11/18 07:02:46;;;;;;;15.17;11.60;;;;;;;6.89;100.00;99491.53;5135536;27;20237;-60
2021/11/18 07:05:13;;;;;;;14.90;11.00;;;;;;;6.92;100.00;99503.72;5135773;27;20258;-59
2021/11/18 07:07:39;;;;;;;13.73;10.40;;;;;;;6.93;100.00;99503.66;5135411;27;20213;-59
2021/11/18 07:10:08;;;;;;;13.13;10.63;;;;;;;6.96;100.00;99503.56;5135692;27;20216;-59
2021/11/18 07:12:35;;;;;;;14.83;11.57;;;;;;;6.98;100.00;99509.63;5135188;27;20220;-59
2021/11/18 07:15:04;;;;;;;13.53;11.10;;;;;;;6.99;100.00;99507.84;5135156;27;20212;-60
2021/11/18 07:17:31;;;;;;;15.97;12.13;;;;;;;7.01;100.00;99501.63;5133801;27;20212;-59
2021/11/18 07:19:58;;;;;;;16.63;12.17;;;;;;;7.05;100.00;99513.78;5135150;27;20212;-60
2021/11/18 07:22:27;;;;;;;14.80;11.27;;;;;;;7.05;100.00;99521.66;5135303;27;20242;-59
2021/11/18 07:24:54;;;;;;;15.40;11.30;;;;;;;7.07;100.00;99511.94;5135179;27;20251;-61
2021/11/18 07:27:20;;;;;;;14.77;10.30;;;;;;;7.10;100.00;99527.63;5133050;27;20665;-60
2021/11/18 07:29:47;;;;;;;13.73;10.53;;;;;;;7.13;100.00;99519.63;5133998;27;20786;-59
2021/11/18 07:32:15;;;;;;;14.07;10.17;;;;;;;7.14;100.00;99537.13;5133607;27;20220;-59
2021/11/18 07:34:42;;;;;;;13.90;10.27;;;;;;;7.17;100.00;99536.16;5133857;27;20212;-59
2021/11/18 07:37:08;;;;;;;12.63;10.03;;;;;;;7.17;100.00;99537.03;5133937;27;20221;-59
2021/11/18 07:39:35;;;;;;;13.73;10.00;;;;;;;7.18;100.00;99531.69;5133822;27;20221;-59
2021/11/18 07:42:02;;;;;;;13.50;10.97;;;;;;;7.22;100.00;99544.75;5133528;27;20209;-60
2021/11/18 07:44:28;;;;;;;14.63;10.50;;;;;;;7.25;100.00;99548.16;5131688;27;20218;-60
2021/11/18 07:46:55;;;;;;;13.23;10.17;;;;;;;7.28;100.00;99542.78;5133658;27;20213;-60
2021/11/18 07:49:24;;;;;;;16.03;10.83;;;;;;;7.30;100.00;99547.06;5132338;27;20209;-60
2021/11/18 07:51:51;;;;;;;16.20;11.70;;;;;;;7.34;100.00;99546.06;5130370;27;20629;-60
2021/11/18 07:54:18;;;;;;;13.37;10.03;;;;;;;7.37;100.00;99537.22;5130586;27;20244;-60
2021/11/18 07:56:45;;;;;;;14.53;11.23;;;;;;;7.39;100.00;99545.91;5133702;27;20209;-60
2021/11/18 07:59:12;;;;;;;13.97;10.80;;;;;;;7.42;100.00;99548.44;5131449;27;20213;-60
2021/11/18 08:01:40;;;;;;;15.90;11.37;;;;;;;7.45;100.00;99546.56;5133709;27;20213;-59
2021/11/18 08:04:07;;;;;;;15.80;11.13;;;;;;;7.46;100.00;99544.78;5132886;27;20823;-60
2021/11/18 08:06:35;;;;;;;13.13;11.20;;;;;;;7.46;100.00;99542.13;5133215;27;20215;-59
2021/11/18 08:09:02;;;;;;;18.37;11.80;;;;;;;7.45;100.00;99546.56;5131434;27;20402;-60
2021/11/18 08:11:31;;;;;;;15.90;11.37;;;;;;;7.47;100.00;99546.50;5132986;27;20224;-60
2021/11/18 08:13:58;;;;;;;14.77;11.93;;;;;;;7.49;100.00;99542.03;5132642;27;20212;-60
2021/11/18 08:16:25;;;;;;;15.87;11.23;;;;;;;7.50;100.00;99543.75;5133186;27;20215;-60
2021/11/18 08:18:52;;;;;;;15.87;12.00;;;;;;;7.49;100.00;99547.31;5132916;27;20209;-61
2021/11/18 08:21:19;;;;;;;17.07;11.83;;;;;;;7.51;100.00;99543.72;5130710;27;20245;-61
2021/11/18 08:23:47;;;;;;;18.53;12.90;;;;;;;7.55;100.00;99539.22;5132825;27;20328;-61
2021/11/18 08:26:16;;;;;;;17.27;13.77;;;;;;;7.57;100.00;99545.25;5129129;27;20584;-61
2021/11/18 08:28:43;;;;;;;20.10;14.13;;;;;;;7.59;100.00;99548.72;5131591;27;20605;-61
2021/11/18 08:31:10;;;;;;;16.83;12.33;;;;;;;7.61;100.00;99557.41;5132273;27;20212;-61
2021/11/18 08:33:38;;;;;;;17.90;12.90;;;;;;;7.66;100.00;99556.31;5131472;27;20222;-61
2021/11/18 08:36:06;;;;;;;18.47;13.00;;;;;;;7.67;100.00;99558.06;5116973;27;20216;-61
2021/11/18 08:38:32;;;;;;;18.03;13.00;;;;;;;7.71;100.00;99558.81;5125813;27;20290;-61
2021/11/18 08:41:03;;;;;;;16.60;11.77;;;;;;;7.74;100.00;99558.69;5131057;27;20688;-61
2021/11/18 08:43:33;;;;;;;18.70;13.13;;;;;;;7.77;100.00;99563.88;5131499;27;20784;-62
2021/11/18 08:46:00;;;;;;;16.30;12.00;;;;;;;7.78;100.00;99565.56;5131531;28;20247;-61
2021/11/18 08:48:27;;;;;;;16.60;12.77;;;;;;;7.78;100.00;99565.56;5131100;28;20215;-61
2021/11/18 08:50:54;;;;;;;17.03;12.90;;;;;;;7.73;100.00;99572.78;5132149;28;20209;-61
2021/11/18 08:53:24;;;;;;;16.30;12.50;;;;;;;7.69;100.00;99577.28;5131918;28;20212;-61
2021/11/18 08:55:51;;;;;;;16.70;12.00;;;;;;;7.74;100.00;99574.47;5128083;28;20209;-61
2021/11/18 08:58:23;;;;;;;16.40;12.00;;;;;;;7.81;100.00;99581.25;5131718;28;20682;-61
2021/11/18 09:00:51;;;;;;;15.80;11.77;;;;;;;7.87;100.00;99575.75;5132092;28;20243;-61
2021/11/18 09:03:19;;;;;;;14.73;11.13;;;;;;;7.92;100.00;99563.31;5129136;28;20228;-62
2021/11/18 09:05:46;;;;;;;16.13;11.73;;;;;;;8.02;100.00;99575.22;5131290;28;20209;-61
2021/11/18 09:08:13;;;;;;;19.10;12.50;;;;;;;8.07;100.00;99581.16;5131634;28;20212;-61
2021/11/18 09:10:39;;;;;;;14.97;11.57;;;;;;;8.12;100.00;99584.50;5130744;28;20209;-61
2021/11/18 09:13:08;;;;;;;15.60;11.13;;;;;;;8.16;100.00;99583.47;5131924;28;20213;-61
2021/11/18 09:15:37;;;;;;;16.33;11.83;;;;;;;8.18;100.00;99582.50;5131122;28;20218;-61
2021/11/18 09:18:04;;;;;;;17.23;11.70;;;;;;;8.23;100.00;99590.28;5130526;28;20704;-61
2021/11/18 09:20:31;;;;;;;17.40;12.20;;;;;;;8.29;100.00;99584.78;5131588;28;20219;-61
2021/11/18 09:22:58;;;;;;;16.50;12.60;;;;;;;8.33;100.00;99581.13;5131744;27;20225;-61
2021/11/18 09:25:27;;;;;;;17.10;12.13;;;;;;;8.35;100.00;99587.19;5134377;27;20213;-61
2021/11/18 09:27:55;;;;;;;16.33;12.57;;;;;;;8.33;100.00;99581.97;5135775;27;20206;-62
2021/11/18 09:30:25;;;;;;;17.40;11.93;;;;;;;8.33;100.00;99589.88;5133583;27;20662;-61
2021/11/18 09:32:55;;;;;;;20.20;13.00;;;;;;;8.33;100.00;99586.38;5134812;27;20217;-61
2021/11/18 09:35:25;;;;;;;17.80;12.70;;;;;;;8.34;100.00;99593.38;5134216;27;20217;-61
2021/11/18 09:37:51;;;;;;;19.03;12.23;;;;;;;8.33;100.00;99591.66;5117959;27;20218;-61
2021/11/18 09:40:21;;;;;;;16.80;12.13;;;;;;;8.32;100.00;99589.94;5134660;27;20213;-61
2021/11/18 09:43:15;;;;;;;18.10;12.67;;;;;;;8.32;100.00;99595.22;5135231;27;20213;-61
2021/11/18 09:45:48;;;;;;;17.43;12.53;;;;;;;8.34;100.00;99593.38;5131036;27;20210;-61
2021/11/18 09:48:40;;;;;;;17.23;12.90;;;;;;;8.41;100.00;99589.59;5134414;27;20209;-61
2021/11/18 09:51:48;;;;;;;16.93;12.23;;;;;;;8.46;100.00;99592.91;5134119;27;20255;-61
2021/11/18 09:54:55;;;;;;;18.93;12.43;;;;;;;8.55;100.00;99589.91;5125335;27;20210;-61
2021/11/18 09:57:51;;;;;;;20.40;12.10;;;;;;;8.67;100.00;99586.81;5128740;27;20213;-62
2021/11/18 10:00:33;;;;;;;16.23;11.40;;;;;;;8.76;100.00;99586.47;5131141;27;20217;-61
2021/11/18 10:03:09;;;;;;;20.33;11.97;;;;;;;8.84;100.00;99579.97;5134011;27;20237;-61
2021/11/18 10:05:45;;;;;;;20.07;13.33;;;;;;;8.96;100.00;99583.91;5134472;27;20576;-61
2021/11/18 10:08:15;;;;;;;19.23;13.37;;;;;;;9.11;100.00;99599.13;5134835;27;20209;-61
2021/11/18 10:10:50;;;;;;;16.50;12.60;;;;;;;9.23;100.00;99588.91;5134239;27;20210;-61
2021/11/18 10:13:42;;;;;;;18.53;12.00;;;;;;;9.31;100.00;99588.63;5134547;27;20236;-61
2021/11/18 10:16:15;;;;;;;17.80;12.43;;;;;;;9.40;100.00;99591.72;5133522;27;20214;-61
2021/11/18 10:18:45;;;;;;;15.40;11.57;;;;;;;9.45;100.00;99588.91;5134785;27;20312;-61
2021/11/18 10:21:17;;;;;;;14.90;11.60;;;;;;;9.49;100.00;99590.50;5135023;27;20216;-61
2021/11/18 10:23:45;;;;;;;17.07;12.27;;;;;;;9.52;100.00;99585.94;5131481;27;20240;-61
2021/11/18 10:26:15;;;;;;;18.87;13.23;;;;;;;9.68;100.00;99586.16;5133542;27;20218;-61
2021/11/18 10:28:47;;;;;;;19.50;12.73;;;;;;;9.85;100.00;99583.66;5133533;27;20254;-61
2021/11/18 10:31:18;;;;;;;17.77;12.67;;;;;;;10.04;100.00;99574.03;5132531;27;20233;-61
2021/11/18 10:33:49;;;;;;;18.63;13.00;;;;;;;10.27;100.00;99571.22;5133486;27;20227;-61
2021/11/18 10:36:24;;;;;;;18.70;12.83;;;;;;;10.50;100.00;99573.66;5134420;27;20213;-61
2021/11/18 10:39:01;;;;;;;20.97;13.40;;;;;;;10.63;100.00;99574.78;5134969;27;20207;-61
2021/11/18 10:41:29;;;;;;;20.33;12.47;;;;;;;10.64;100.00;99565.97;5134847;27;20237;-61
2021/11/18 10:44:11;;;;;;;19.20;12.57;;;;;;;10.61;100.00;99561.66;5134763;27;20251;-61
2021/11/18 10:46:41;;;;;;;19.97;12.10;;;;;;;10.47;100.00;99563.22;5134853;27;20203;-61
2021/11/18 10:49:10;;;;;;;18.83;11.60;;;;;;;10.36;100.00;99558.44;5126531;27;20210;-61
2021/11/18 10:51:46;;;;;;;16.77;11.57;;;;;;;10.35;100.00;99555.88;5129788;27;20356;-61
2021/11/18 10:54:15;;;;;;;20.30;12.37;;;;;;;10.38;100.00;99553.94;5128126;27;20696;-61
2021/11/18 10:56:48;;;;;;;19.10;12.37;;;;;;;10.15;99.04;99546.19;5134790;27;20223;-61
2021/11/18 10:59:17;;;;;;;15.30;11.33;;;;;;;10.08;99.88;99544.75;5134713;27;20209;-61
2021/11/18 11:01:46;;;;;;;15.50;10.57;;;;;;;10.09;100.00;99540.34;5134545;27;20215;-61
2021/11/18 11:04:34;;;;;;;16.43;10.77;;;;;;;10.22;100.00;99557.34;5134431;27;20234;-61
2021/11/18 11:07:02;;;;;;;18.63;11.90;;;;;;;10.17;100.00;99549.66;5129718;27;20210;-62
2021/11/18 11:09:32;;;;;;;15.30;10.87;;;;;;;10.04;100.00;99556.38;5134415;27;20221;-61
2021/11/18 11:12:08;;;;;;;17.20;11.30;;;;;;;9.96;98.49;99554.97;5134196;27;20647;-61
2021/11/18 11:14:56;;;;;;;13.83;10.53;;;;;;;9.83;98.82;99549.38;5134405;27;20212;-61
2021/11/18 11:17:36;;;;;;;16.57;10.70;;;;;;;9.85;99.79;99551.97;5132492;27;20241;-60
2021/11/18 11:20:06;;;;;;;16.33;10.40;;;;;;;9.99;99.87;99555.72;5134172;27;20441;-60
2021/11/18 11:22:45;;;;;;;15.73;9.40;;;;;;;10.11;97.96;99559.63;5127145;27;20215;-60
2021/11/18 11:25:37;;;;;;;12.77;9.50;;;;;;;10.08;96.93;99551.81;5133641;27;20241;-60
2021/11/18 11:28:40;;;;;;;12.77;9.67;;;;;;;10.07;97.89;99552.75;5133420;27;20216;-60